sensor_id;sensor_type;location;lat;lon;timestamp;temperature;humidity
41838;DHT22;27511;52.042;5.178;2023-05-07T00:01:03;18.60;99.90
41838;DHT22;27511;52.042;5.178;2023-05-07T00:03:31;18.70;99.90
41838;DHT22;27511;52.042;5.178;2023-05-07T00:05:56;18.60;99.90
41838;DHT22;27511;52.042;5.178;2023-05-07T00:08:22;18.70;99.90
41838;DHT22;27511;52.042;5.178;2023-05-07T00:10:47;18.70;99.90
41838;DHT22;27511;52.042;5.178;2023-05-07T00:13:12;18.70;99.90
41838;DHT22;27511;52.042;5.178;2023-05-07T00:15:38;18.60;99.90
41838;DHT22;27511;52.042;5.178;2023-05-07T00:18:04;18.60;99.90
41838;DHT22;27511;52.042;5.178;2023-05-07T00:20:29;18.60;99.90
41838;DHT22;27511;52.042;5.178;2023-05-07T00:22:55;18.60;99.90
41838;DHT22;27511;52.042;5.178;2023-05-07T00:25:20;18.60;99.90
41838;DHT22;27511;52.042;5.178;2023-05-07T00:27:46;18.60;99.90
41838;DHT22;27511;52.042;5.178;2023-05-07T00:30:11;18.60;99.90
41838;DHT22;27511;52.042;5.178;2023-05-07T00:32:37;18.60;99.90
41838;DHT22;27511;52.042;5.178;2023-05-07T00:35:03;18.60;99.90
41838;DHT22;27511;52.042;5.178;2023-05-07T00:37:29;18.60;99.90
41838;DHT22;27511;52.042;5.178;2023-05-07T00:39:55;18.60;99.90
41838;DHT22;27511;52.042;5.178;2023-05-07T00:42:20;18.60;99.90
41838;DHT22;27511;52.042;5.178;2023-05-07T00:44:46;18.60;99.90
41838;DHT22;27511;52.042;5.178;2023-05-07T00:47:11;18.70;99.90
41838;DHT22;27511;52.042;5.178;2023-05-07T00:49:38;18.70;99.90
41838;DHT22;27511;52.042;5.178;2023-05-07T00:52:04;18.60;99.90
41838;DHT22;27511;52.042;5.178;2023-05-07T00:54:30;18.60;99.90
41838;DHT22;27511;52.042;5.178;2023-05-07T00:56:56;18.70;99.90
41838;DHT22;27511;52.042;5.178;2023-05-07T00:59:21;18.60;99.90
41838;DHT22;27511;52.042;5.178;2023-05-07T01:01:47;18.60;99.90
41838;DHT22;27511;52.042;5.178;2023-05-07T01:04:12;18.50;99.90
41838;DHT22;27511;52.042;5.178;2023-05-07T01:06:38;18.60;99.90
41838;DHT22;27511;52.042;5.178;2023-05-07T01:09:04;18.50;99.90
41838;DHT22;27511;52.042;5.178;2023-05-07T01:11:30;18.50;99.90
41838;DHT22;27511;52.042;5.178;2023-05-07T01:13:55;18.60;99.90
41838;DHT22;27511;52.042;5.178;2023-05-07T01:16:22;18.40;99.90
41838;DHT22;27511;52.042;5.178;2023-05-07T01:18:47;18.60;99.90
41838;DHT22;27511;52.042;5.178;2023-05-07T01:21:14;18.50;99.90
41838;DHT22;27511;52.042;5.178;2023-05-07T01:23:40;18.60;99.90
41838;DHT22;27511;52.042;5.178;2023-05-07T01:26:06;18.60;99.90
41838;DHT22;27511;52.042;5.178;2023-05-07T01:28:32;18.60;99.90
41838;DHT22;27511;52.042;5.178;2023-05-07T01:31:01;18.60;99.90
41838;DHT22;27511;52.042;5.178;2023-05-07T01:33:27;18.60;99.90
41838;DHT22;27511;52.042;5.178;2023-05-07T01:35:54;18.60;99.90
41838;DHT22;27511;52.042;5.178;2023-05-07T01:38:21;18.60;99.90
41838;DHT22;27511;52.042;5.178;2023-05-07T01:40:46;18.70;99.90
41838;DHT22;27511;52.042;5.178;2023-05-07T01:43:12;18.60;99.90
41838;DHT22;27511;52.042;5.178;2023-05-07T01:45:38;18.60;99.90
41838;DHT22;27511;52.042;5.178;2023-05-07T01:48:03;18.50;99.90
41838;DHT22;27511;52.042;5.178;2023-05-07T01:50:32;18.50;99.90
41838;DHT22;27511;52.042;5.178;2023-05-07T01:52:58;18.50;99.90
41838;DHT22;27511;52.042;5.178;2023-05-07T01:55:24;18.60;99.90
41838;DHT22;27511;52.042;5.178;2023-05-07T01:57:50;18.60;99.90
41838;DHT22;27511;52.042;5.178;2023-05-07T02:00:15;18.60;99.90
41838;DHT22;27511;52.042;5.178;2023-05-07T02:02:41;18.60;99.90
41838;DHT22;27511;52.042;5.178;2023-05-07T02:05:06;18.60;99.90
41838;DHT22;27511;52.042;5.178;2023-05-07T02:07:32;18.60;99.90
41838;DHT22;27511;52.042;5.178;2023-05-07T02:09:57;18.60;99.90
41838;DHT22;27511;52.042;5.178;2023-05-07T02:12:23;18.60;99.90
41838;DHT22;27511;52.042;5.178;2023-05-07T02:14:49;18.60;99.90
41838;DHT22;27511;52.042;5.178;2023-05-07T02:17:14;18.70;99.90
41838;DHT22;27511;52.042;5.178;2023-05-07T02:19:39;18.60;99.90
41838;DHT22;27511;52.042;5.178;2023-05-07T02:22:05;18.50;99.90
41838;DHT22;27511;52.042;5.178;2023-05-07T02:24:30;18.40;99.90
41838;DHT22;27511;52.042;5.178;2023-05-07T02:26:56;18.50;99.90
41838;DHT22;27511;52.042;5.178;2023-05-07T02:29:21;18.50;99.90
41838;DHT22;27511;52.042;5.178;2023-05-07T02:31:47;18.50;99.90
41838;DHT22;27511;52.042;5.178;2023-05-07T02:34:18;18.50;99.90
41838;DHT22;27511;52.042;5.178;2023-05-07T02:36:44;18.50;99.90
41838;DHT22;27511;52.042;5.178;2023-05-07T02:39:10;18.40;99.90
41838;DHT22;27511;52.042;5.178;2023-05-07T02:41:36;18.50;99.90
41838;DHT22;27511;52.042;5.178;2023-05-07T02:44:02;18.40;99.90
41838;DHT22;27511;52.042;5.178;2023-05-07T02:46:27;18.30;99.90
41838;DHT22;27511;52.042;5.178;2023-05-07T02:48:52;18.40;99.90
41838;DHT22;27511;52.042;5.178;2023-05-07T02:51:21;18.30;99.90
41838;DHT22;27511;52.042;5.178;2023-05-07T02:53:47;18.30;99.90
41838;DHT22;27511;52.042;5.178;2023-05-07T02:56:13;18.30;99.90
41838;DHT22;27511;52.042;5.178;2023-05-07T02:58:39;18.30;99.90
41838;DHT22;27511;52.042;5.178;2023-05-07T03:01:07;18.30;99.90
41838;DHT22;27511;52.042;5.178;2023-05-07T03:03:33;18.20;99.90
41838;DHT22;27511;52.042;5.178;2023-05-07T03:05:58;18.30;99.90
41838;DHT22;27511;52.042;5.178;2023-05-07T03:08:24;18.30;99.90
41838;DHT22;27511;52.042;5.178;2023-05-07T03:10:49;18.30;99.90
41838;DHT22;27511;52.042;5.178;2023-05-07T03:13:15;18.30;99.90
41838;DHT22;27511;52.042;5.178;2023-05-07T03:15:40;18.20;99.90
41838;DHT22;27511;52.042;5.178;2023-05-07T03:18:06;18.20;99.90
41838;DHT22;27511;52.042;5.178;2023-05-07T03:20:31;18.20;99.90
41838;DHT22;27511;52.042;5.178;2023-05-07T03:22:57;18.20;99.90
41838;DHT22;27511;52.042;5.178;2023-05-07T03:25:22;17.90;99.90
41838;DHT22;27511;52.042;5.178;2023-05-07T03:27:48;17.90;99.90
41838;DHT22;27511;52.042;5.178;2023-05-07T03:30:13;17.90;99.90
41838;DHT22;27511;52.042;5.178;2023-05-07T03:32:39;17.90;99.90
41838;DHT22;27511;52.042;5.178;2023-05-07T03:35:04;17.90;99.90
41838;DHT22;27511;52.042;5.178;2023-05-07T03:37:30;17.90;99.90
41838;DHT22;27511;52.042;5.178;2023-05-07T03:39:56;18.00;99.90
41838;DHT22;27511;52.042;5.178;2023-05-07T03:42:21;17.90;99.90
41838;DHT22;27511;52.042;5.178;2023-05-07T03:44:46;17.90;99.90
41838;DHT22;27511;52.042;5.178;2023-05-07T03:47:12;17.80;99.90
41838;DHT22;27511;52.042;5.178;2023-05-07T03:49:38;17.80;99.90
41838;DHT22;27511;52.042;5.178;2023-05-07T03:52:04;17.90;99.90
41838;DHT22;27511;52.042;5.178;2023-05-07T03:54:30;17.80;99.90
41838;DHT22;27511;52.042;5.178;2023-05-07T03:56:55;17.80;99.90
41838;DHT22;27511;52.042;5.178;2023-05-07T03:59:21;17.80;99.90
41838;DHT22;27511;52.042;5.178;2023-05-07T04:01:47;17.80;99.90
41838;DHT22;27511;52.042;5.178;2023-05-07T04:04:13;17.80;99.90
41838;DHT22;27511;52.042;5.178;2023-05-07T04:06:39;17.80;99.90
41838;DHT22;27511;52.042;5.178;2023-05-07T04:09:05;17.80;99.90
41838;DHT22;27511;52.042;5.178;2023-05-07T04:11:30;17.70;99.90
41838;DHT22;27511;52.042;5.178;2023-05-07T04:13:55;17.90;99.90
41838;DHT22;27511;52.042;5.178;2023-05-07T04:16:21;17.80;99.90
41838;DHT22;27511;52.042;5.178;2023-05-07T04:18:46;17.90;99.90
41838;DHT22;27511;52.042;5.178;2023-05-07T04:21:15;17.90;99.90
41838;DHT22;27511;52.042;5.178;2023-05-07T04:23:41;17.80;99.90
41838;DHT22;27511;52.042;5.178;2023-05-07T04:26:06;17.90;99.90
41838;DHT22;27511;52.042;5.178;2023-05-07T04:28:32;17.90;99.90
41838;DHT22;27511;52.042;5.178;2023-05-07T04:30:57;17.90;99.90
41838;DHT22;27511;52.042;5.178;2023-05-07T04:33:23;17.90;99.90
41838;DHT22;27511;52.042;5.178;2023-05-07T04:35:48;17.90;99.90
41838;DHT22;27511;52.042;5.178;2023-05-07T04:38:14;17.90;99.90
41838;DHT22;27511;52.042;5.178;2023-05-07T04:40:40;18.00;99.90
41838;DHT22;27511;52.042;5.178;2023-05-07T04:43:06;18.00;99.90
41838;DHT22;27511;52.042;5.178;2023-05-07T04:45:32;18.00;99.90
41838;DHT22;27511;52.042;5.178;2023-05-07T04:47:58;18.00;99.90
41838;DHT22;27511;52.042;5.178;2023-05-07T04:50:23;18.00;99.90
41838;DHT22;27511;52.042;5.178;2023-05-07T04:52:49;18.10;99.90
41838;DHT22;27511;52.042;5.178;2023-05-07T04:55:15;18.10;99.90
41838;DHT22;27511;52.042;5.178;2023-05-07T04:57:40;18.10;99.90
41838;DHT22;27511;52.042;5.178;2023-05-07T05:00:06;18.10;99.90
41838;DHT22;27511;52.042;5.178;2023-05-07T05:02:34;18.10;99.90
41838;DHT22;27511;52.042;5.178;2023-05-07T05:05:00;18.10;99.90
41838;DHT22;27511;52.042;5.178;2023-05-07T05:07:26;18.10;99.90
41838;DHT22;27511;52.042;5.178;2023-05-07T05:09:52;18.10;99.90
41838;DHT22;27511;52.042;5.178;2023-05-07T05:12:17;18.20;99.90
41838;DHT22;27511;52.042;5.178;2023-05-07T05:14:43;18.20;99.90
41838;DHT22;27511;52.042;5.178;2023-05-07T05:17:08;18.10;99.90
41838;DHT22;27511;52.042;5.178;2023-05-07T05:19:33;18.10;99.90
41838;DHT22;27511;52.042;5.178;2023-05-07T05:21:59;18.10;99.90
41838;DHT22;27511;52.042;5.178;2023-05-07T05:24:26;18.20;99.90
41838;DHT22;27511;52.042;5.178;2023-05-07T05:26:53;18.20;99.90
41838;DHT22;27511;52.042;5.178;2023-05-07T05:29:18;18.20;99.90
41838;DHT22;27511;52.042;5.178;2023-05-07T05:31:43;18.30;99.90
41838;DHT22;27511;52.042;5.178;2023-05-07T05:34:09;18.30;99.90
41838;DHT22;27511;52.042;5.178;2023-05-07T05:36:34;18.20;99.90
41838;DHT22;27511;52.042;5.178;2023-05-07T05:39:00;18.30;99.90
41838;DHT22;27511;52.042;5.178;2023-05-07T05:41:25;18.40;99.90
41838;DHT22;27511;52.042;5.178;2023-05-07T05:43:51;18.30;99.90
41838;DHT22;27511;52.042;5.178;2023-05-07T05:46:16;18.40;99.90
41838;DHT22;27511;52.042;5.178;2023-05-07T05:48:42;18.40;99.90
41838;DHT22;27511;52.042;5.178;2023-05-07T05:51:07;18.40;99.90
41838;DHT22;27511;52.042;5.178;2023-05-07T05:53:33;18.40;99.90
41838;DHT22;27511;52.042;5.178;2023-05-07T05:55:58;18.40;99.90
41838;DHT22;27511;52.042;5.178;2023-05-07T05:58:24;18.40;99.90
41838;DHT22;27511;52.042;5.178;2023-05-07T06:00:49;18.50;99.90
41838;DHT22;27511;52.042;5.178;2023-05-07T06:03:17;18.50;99.90
41838;DHT22;27511;52.042;5.178;2023-05-07T06:05:43;18.50;99.90
41838;DHT22;27511;52.042;5.178;2023-05-07T06:08:08;18.60;99.90
41838;DHT22;27511;52.042;5.178;2023-05-07T06:10:35;18.60;99.90
41838;DHT22;27511;52.042;5.178;2023-05-07T06:13:00;18.60;99.90
41838;DHT22;27511;52.042;5.178;2023-05-07T06:15:26;18.70;99.90
41838;DHT22;27511;52.042;5.178;2023-05-07T06:17:51;18.70;99.90
41838;DHT22;27511;52.042;5.178;2023-05-07T06:20:17;18.80;99.90
41838;DHT22;27511;52.042;5.178;2023-05-07T06:22:42;18.80;99.90
41838;DHT22;27511;52.042;5.178;2023-05-07T06:25:08;18.80;99.90
41838;DHT22;27511;52.042;5.178;2023-05-07T06:27:33;18.90;99.90
41838;DHT22;27511;52.042;5.178;2023-05-07T06:29:59;18.80;99.90
41838;DHT22;27511;52.042;5.178;2023-05-07T06:32:24;18.90;99.90
41838;DHT22;27511;52.042;5.178;2023-05-07T06:34:50;19.00;99.90
41838;DHT22;27511;52.042;5.178;2023-05-07T06:37:15;19.00;99.90
41838;DHT22;27511;52.042;5.178;2023-05-07T06:39:41;19.10;99.90
41838;DHT22;27511;52.042;5.178;2023-05-07T06:42:06;19.00;99.90
41838;DHT22;27511;52.042;5.178;2023-05-07T06:44:32;19.00;99.90
41838;DHT22;27511;52.042;5.178;2023-05-07T06:46:57;18.80;99.90
41838;DHT22;27511;52.042;5.178;2023-05-07T06:49:23;18.90;99.90
41838;DHT22;27511;52.042;5.178;2023-05-07T06:51:48;18.80;99.90
41838;DHT22;27511;52.042;5.178;2023-05-07T06:54:13;18.70;99.90
41838;DHT22;27511;52.042;5.178;2023-05-07T06:56:39;18.90;99.90
41838;DHT22;27511;52.042;5.178;2023-05-07T06:59:06;18.90;99.90
41838;DHT22;27511;52.042;5.178;2023-05-07T07:01:31;18.90;99.90
41838;DHT22;27511;52.042;5.178;2023-05-07T07:03:57;19.00;99.90
41838;DHT22;27511;52.042;5.178;2023-05-07T07:06:22;18.90;99.90
41838;DHT22;27511;52.042;5.178;2023-05-07T07:08:47;19.00;99.90
41838;DHT22;27511;52.042;5.178;2023-05-07T07:11:13;19.10;99.90
41838;DHT22;27511;52.042;5.178;2023-05-07T07:13:38;19.10;99.90
41838;DHT22;27511;52.042;5.178;2023-05-07T07:16:05;19.10;99.90
41838;DHT22;27511;52.042;5.178;2023-05-07T07:18:30;19.20;99.90
41838;DHT22;27511;52.042;5.178;2023-05-07T07:20:56;19.20;99.90
41838;DHT22;27511;52.042;5.178;2023-05-07T07:23:21;19.30;99.90
41838;DHT22;27511;52.042;5.178;2023-05-07T07:25:47;19.20;99.90
41838;DHT22;27511;52.042;5.178;2023-05-07T07:28:12;19.10;99.90
41838;DHT22;27511;52.042;5.178;2023-05-07T07:30:38;19.10;99.90
41838;DHT22;27511;52.042;5.178;2023-05-07T07:33:04;19.20;99.90
41838;DHT22;27511;52.042;5.178;2023-05-07T07:35:30;19.20;99.90
41838;DHT22;27511;52.042;5.178;2023-05-07T07:37:56;19.10;99.90
41838;DHT22;27511;52.042;5.178;2023-05-07T07:40:22;19.10;99.90
41838;DHT22;27511;52.042;5.178;2023-05-07T07:42:47;19.10;99.90
41838;DHT22;27511;52.042;5.178;2023-05-07T07:45:13;19.30;99.90
41838;DHT22;27511;52.042;5.178;2023-05-07T07:47:39;19.30;99.90
41838;DHT22;27511;52.042;5.178;2023-05-07T07:50:04;19.30;99.90
41838;DHT22;27511;52.042;5.178;2023-05-07T07:52:30;19.30;99.90
41838;DHT22;27511;52.042;5.178;2023-05-07T07:54:56;19.40;99.90
41838;DHT22;27511;52.042;5.178;2023-05-07T07:57:21;19.40;99.90
41838;DHT22;27511;52.042;5.178;2023-05-07T07:59:47;19.50;99.90
41838;DHT22;27511;52.042;5.178;2023-05-07T08:02:12;19.40;99.90
41838;DHT22;27511;52.042;5.178;2023-05-07T08:04:38;19.40;99.90
41838;DHT22;27511;52.042;5.178;2023-05-07T08:07:03;19.50;99.90
41838;DHT22;27511;52.042;5.178;2023-05-07T08:09:29;19.50;99.90
41838;DHT22;27511;52.042;5.178;2023-05-07T08:11:54;19.50;99.90
41838;DHT22;27511;52.042;5.178;2023-05-07T08:14:20;19.50;99.90
41838;DHT22;27511;52.042;5.178;2023-05-07T08:16:45;19.70;99.90
41838;DHT22;27511;52.042;5.178;2023-05-07T08:19:11;19.60;99.90
41838;DHT22;27511;52.042;5.178;2023-05-07T08:21:38;19.70;99.90
41838;DHT22;27511;52.042;5.178;2023-05-07T08:24:04;19.60;99.90
41838;DHT22;27511;52.042;5.178;2023-05-07T08:26:30;19.50;99.90
41838;DHT22;27511;52.042;5.178;2023-05-07T08:28:55;19.60;99.90
41838;DHT22;27511;52.042;5.178;2023-05-07T08:31:21;19.60;99.90
41838;DHT22;27511;52.042;5.178;2023-05-07T08:33:46;19.50;99.90
41838;DHT22;27511;52.042;5.178;2023-05-07T08:36:12;19.50;99.90
41838;DHT22;27511;52.042;5.178;2023-05-07T08:38:37;19.60;99.90
41838;DHT22;27511;52.042;5.178;2023-05-07T08:41:03;19.50;99.90
41838;DHT22;27511;52.042;5.178;2023-05-07T08:43:28;19.50;99.90
41838;DHT22;27511;52.042;5.178;2023-05-07T08:45:56;19.60;99.90
41838;DHT22;27511;52.042;5.178;2023-05-07T08:48:24;19.70;99.90
41838;DHT22;27511;52.042;5.178;2023-05-07T08:50:50;19.80;99.90
41838;DHT22;27511;52.042;5.178;2023-05-07T08:53:16;19.90;99.90
41838;DHT22;27511;52.042;5.178;2023-05-07T08:55:42;19.90;99.90
41838;DHT22;27511;52.042;5.178;2023-05-07T08:58:07;19.70;99.90
41838;DHT22;27511;52.042;5.178;2023-05-07T09:00:33;19.80;99.90
41838;DHT22;27511;52.042;5.178;2023-05-07T09:02:59;19.90;99.90
41838;DHT22;27511;52.042;5.178;2023-05-07T09:05:25;19.90;99.90
41838;DHT22;27511;52.042;5.178;2023-05-07T09:07:51;20.00;99.90
41838;DHT22;27511;52.042;5.178;2023-05-07T09:10:16;20.10;99.90
41838;DHT22;27511;52.042;5.178;2023-05-07T09:12:42;20.20;99.90
41838;DHT22;27511;52.042;5.178;2023-05-07T09:15:07;20.30;99.90
41838;DHT22;27511;52.042;5.178;2023-05-07T09:17:33;20.40;99.90
41838;DHT22;27511;52.042;5.178;2023-05-07T09:20:02;20.50;99.90
41838;DHT22;27511;52.042;5.178;2023-05-07T09:22:31;20.50;99.90
41838;DHT22;27511;52.042;5.178;2023-05-07T09:24:56;20.70;99.90
41838;DHT22;27511;52.042;5.178;2023-05-07T09:27:22;20.80;99.90
41838;DHT22;27511;52.042;5.178;2023-05-07T09:29:47;20.90;99.90
41838;DHT22;27511;52.042;5.178;2023-05-07T09:32:13;20.90;99.90
41838;DHT22;27511;52.042;5.178;2023-05-07T09:34:39;20.80;99.90
41838;DHT22;27511;52.042;5.178;2023-05-07T09:37:06;20.90;99.90
41838;DHT22;27511;52.042;5.178;2023-05-07T09:39:42;21.00;99.90
41838;DHT22;27511;52.042;5.178;2023-05-07T09:42:08;21.20;99.90
41838;DHT22;27511;52.042;5.178;2023-05-07T09:44:33;21.20;99.90
41838;DHT22;27511;52.042;5.178;2023-05-07T09:46:59;21.10;99.90
41838;DHT22;27511;52.042;5.178;2023-05-07T09:49:25;21.20;99.90
41838;DHT22;27511;52.042;5.178;2023-05-07T09:51:53;21.20;99.90
41838;DHT22;27511;52.042;5.178;2023-05-07T09:54:18;21.40;99.90
41838;DHT22;27511;52.042;5.178;2023-05-07T09:56:44;21.40;99.90
41838;DHT22;27511;52.042;5.178;2023-05-07T09:59:10;21.40;99.90
41838;DHT22;27511;52.042;5.178;2023-05-07T10:01:37;21.30;99.90
41838;DHT22;27511;52.042;5.178;2023-05-07T10:04:03;21.40;99.90
41838;DHT22;27511;52.042;5.178;2023-05-07T10:06:30;21.60;99.90
41838;DHT22;27511;52.042;5.178;2023-05-07T10:08:55;21.80;99.90
41838;DHT22;27511;52.042;5.178;2023-05-07T10:11:22;21.70;99.90
41838;DHT22;27511;52.042;5.178;2023-05-07T10:13:48;21.90;99.90
41838;DHT22;27511;52.042;5.178;2023-05-07T10:16:13;22.00;99.90
41838;DHT22;27511;52.042;5.178;2023-05-07T10:18:40;22.30;99.90
41838;DHT22;27511;52.042;5.178;2023-05-07T10:21:19;22.20;99.90
41838;DHT22;27511;52.042;5.178;2023-05-07T10:23:45;22.20;99.90
41838;DHT22;27511;52.042;5.178;2023-05-07T10:26:11;22.20;99.90
41838;DHT22;27511;52.042;5.178;2023-05-07T10:28:38;22.20;99.90
41838;DHT22;27511;52.042;5.178;2023-05-07T10:33:33;22.20;99.90
41838;DHT22;27511;52.042;5.178;2023-05-07T10:36:00;22.30;99.90
41838;DHT22;27511;52.042;5.178;2023-05-07T10:38:26;22.30;99.90
41838;DHT22;27511;52.042;5.178;2023-05-07T10:40:52;22.30;99.90
41838;DHT22;27511;52.042;5.178;2023-05-07T10:43:18;22.40;99.90
41838;DHT22;27511;52.042;5.178;2023-05-07T10:45:44;22.30;99.90
41838;DHT22;27511;52.042;5.178;2023-05-07T10:52:25;22.70;99.90
41838;DHT22;27511;52.042;5.178;2023-05-07T10:54:44;22.90;99.90
41838;DHT22;27511;52.042;5.178;2023-05-07T10:59:53;22.90;99.90
41838;DHT22;27511;52.042;5.178;2023-05-07T11:02:19;23.00;99.90
41838;DHT22;27511;52.042;5.178;2023-05-07T11:04:44;23.00;99.90
41838;DHT22;27511;52.042;5.178;2023-05-07T11:07:26;23.20;99.90
41838;DHT22;27511;52.042;5.178;2023-05-07T11:12:45;23.20;99.90
41838;DHT22;27511;52.042;5.178;2023-05-07T11:17:28;23.40;99.90
41838;DHT22;27511;52.042;5.178;2023-05-07T11:19:57;23.40;99.90
41838;DHT22;27511;52.042;5.178;2023-05-07T11:24:54;23.60;99.90
41838;DHT22;27511;52.042;5.178;2023-05-07T11:27:23;23.60;99.90
41838;DHT22;27511;52.042;5.178;2023-05-07T11:29:48;23.60;99.90
41838;DHT22;27511;52.042;5.178;2023-05-07T11:32:15;23.50;99.90
41838;DHT22;27511;52.042;5.178;2023-05-07T11:34:41;23.60;99.90
41838;DHT22;27511;52.042;5.178;2023-05-07T11:37:07;23.60;99.90
41838;DHT22;27511;52.042;5.178;2023-05-07T11:39:33;23.60;99.90
41838;DHT22;27511;52.042;5.178;2023-05-07T11:41:59;23.70;99.90
41838;DHT22;27511;52.042;5.178;2023-05-07T11:44:25;23.70;99.90
41838;DHT22;27511;52.042;5.178;2023-05-07T11:46:50;23.80;99.90
41838;DHT22;27511;52.042;5.178;2023-05-07T11:49:16;23.90;99.90
41838;DHT22;27511;52.042;5.178;2023-05-07T11:51:42;24.00;99.90
41838;DHT22;27511;52.042;5.178;2023-05-07T11:54:08;23.80;99.90
41838;DHT22;27511;52.042;5.178;2023-05-07T11:56:36;23.80;99.90
41838;DHT22;27511;52.042;5.178;2023-05-07T11:59:02;23.90;99.90
41838;DHT22;27511;52.042;5.178;2023-05-07T12:01:28;23.90;99.90
41838;DHT22;27511;52.042;5.178;2023-05-07T12:03:53;24.00;99.90
41838;DHT22;27511;52.042;5.178;2023-05-07T12:06:18;24.40;99.90
41838;DHT22;27511;52.042;5.178;2023-05-07T12:08:45;24.40;99.90
41838;DHT22;27511;52.042;5.178;2023-05-07T12:11:29;24.60;99.90
41838;DHT22;27511;52.042;5.178;2023-05-07T12:13:54;24.60;99.90
41838;DHT22;27511;52.042;5.178;2023-05-07T12:16:20;24.70;99.90
41838;DHT22;27511;52.042;5.178;2023-05-07T12:18:46;24.80;99.90
41838;DHT22;27511;52.042;5.178;2023-05-07T12:21:12;24.90;99.90
41838;DHT22;27511;52.042;5.178;2023-05-07T12:23:38;24.90;99.90
41838;DHT22;27511;52.042;5.178;2023-05-07T12:26:03;24.90;99.90
41838;DHT22;27511;52.042;5.178;2023-05-07T12:28:29;24.80;99.90
41838;DHT22;27511;52.042;5.178;2023-05-07T12:30:55;25.00;99.90
41838;DHT22;27511;52.042;5.178;2023-05-07T12:33:25;25.00;99.90
41838;DHT22;27511;52.042;5.178;2023-05-07T12:35:52;24.90;99.90
41838;DHT22;27511;52.042;5.178;2023-05-07T12:38:18;24.70;99.90
41838;DHT22;27511;52.042;5.178;2023-05-07T12:40:44;24.70;99.90
41838;DHT22;27511;52.042;5.178;2023-05-07T12:43:20;24.60;99.90
41838;DHT22;27511;52.042;5.178;2023-05-07T12:45:46;24.60;99.90
41838;DHT22;27511;52.042;5.178;2023-05-07T12:48:12;24.70;99.90
41838;DHT22;27511;52.042;5.178;2023-05-07T12:50:38;24.90;99.90
41838;DHT22;27511;52.042;5.178;2023-05-07T12:53:04;25.00;99.90
41838;DHT22;27511;52.042;5.178;2023-05-07T12:55:31;25.00;99.90
41838;DHT22;27511;52.042;5.178;2023-05-07T12:57:57;24.90;99.90
41838;DHT22;27511;52.042;5.178;2023-05-07T13:00:35;25.10;99.90
41838;DHT22;27511;52.042;5.178;2023-05-07T13:03:01;25.00;99.90
41838;DHT22;27511;52.042;5.178;2023-05-07T13:05:26;24.90;99.90
41838;DHT22;27511;52.042;5.178;2023-05-07T13:07:52;24.70;99.90
41838;DHT22;27511;52.042;5.178;2023-05-07T13:10:18;24.90;99.90
41838;DHT22;27511;52.042;5.178;2023-05-07T13:12:44;25.00;99.90
41838;DHT22;27511;52.042;5.178;2023-05-07T13:15:10;25.00;99.90
41838;DHT22;27511;52.042;5.178;2023-05-07T13:17:35;24.90;99.90
41838;DHT22;27511;52.042;5.178;2023-05-07T13:20:01;24.90;99.90
41838;DHT22;27511;52.042;5.178;2023-05-07T13:22:26;24.90;99.90
41838;DHT22;27511;52.042;5.178;2023-05-07T13:24:51;24.90;99.90
41838;DHT22;27511;52.042;5.178;2023-05-07T13:27:17;24.80;99.90
41838;DHT22;27511;52.042;5.178;2023-05-07T13:29:46;24.70;99.90
41838;DHT22;27511;52.042;5.178;2023-05-07T13:32:11;24.80;99.90
41838;DHT22;27511;52.042;5.178;2023-05-07T13:34:37;24.90;99.90
41838;DHT22;27511;52.042;5.178;2023-05-07T13:37:02;24.90;99.90
41838;DHT22;27511;52.042;5.178;2023-05-07T13:39:28;24.70;99.90
41838;DHT22;27511;52.042;5.178;2023-05-07T13:41:53;24.90;99.90
41838;DHT22;27511;52.042;5.178;2023-05-07T13:44:18;25.10;99.90
41838;DHT22;27511;52.042;5.178;2023-05-07T13:46:44;25.30;99.90
41838;DHT22;27511;52.042;5.178;2023-05-07T13:49:10;25.20;99.90
41838;DHT22;27511;52.042;5.178;2023-05-07T13:51:36;25.40;99.90
41838;DHT22;27511;52.042;5.178;2023-05-07T13:54:01;25.60;99.90
41838;DHT22;27511;52.042;5.178;2023-05-07T13:56:27;25.70;99.90
41838;DHT22;27511;52.042;5.178;2023-05-07T13:58:53;25.90;99.90
41838;DHT22;27511;52.042;5.178;2023-05-07T14:01:19;26.00;99.90
41838;DHT22;27511;52.042;5.178;2023-05-07T14:03:44;25.80;99.90
41838;DHT22;27511;52.042;5.178;2023-05-07T14:06:10;25.60;99.90
41838;DHT22;27511;52.042;5.178;2023-05-07T14:08:35;25.60;99.90
41838;DHT22;27511;52.042;5.178;2023-05-07T14:11:01;25.60;99.90
41838;DHT22;27511;52.042;5.178;2023-05-07T14:13:26;25.50;99.90
41838;DHT22;27511;52.042;5.178;2023-05-07T14:15:52;25.40;99.90
41838;DHT22;27511;52.042;5.178;2023-05-07T14:18:17;25.20;99.90
41838;DHT22;27511;52.042;5.178;2023-05-07T14:20:43;25.40;99.90
41838;DHT22;27511;52.042;5.178;2023-05-07T14:23:11;25.50;99.90
41838;DHT22;27511;52.042;5.178;2023-05-07T14:25:36;25.50;99.90
41838;DHT22;27511;52.042;5.178;2023-05-07T14:28:01;25.50;99.90
41838;DHT22;27511;52.042;5.178;2023-05-07T14:30:27;25.40;99.90
41838;DHT22;27511;52.042;5.178;2023-05-07T14:32:52;25.10;99.90
41838;DHT22;27511;52.042;5.178;2023-05-07T14:35:18;25.00;99.90
41838;DHT22;27511;52.042;5.178;2023-05-07T14:37:43;24.90;99.90
41838;DHT22;27511;52.042;5.178;2023-05-07T14:40:09;24.70;99.90
41838;DHT22;27511;52.042;5.178;2023-05-07T14:42:34;24.30;99.90
41838;DHT22;27511;52.042;5.178;2023-05-07T14:45:00;24.20;99.90
41838;DHT22;27511;52.042;5.178;2023-05-07T14:47:25;24.10;99.90
41838;DHT22;27511;52.042;5.178;2023-05-07T14:49:51;24.20;99.90
41838;DHT22;27511;52.042;5.178;2023-05-07T14:52:18;24.20;99.90
41838;DHT22;27511;52.042;5.178;2023-05-07T14:54:43;23.90;99.90
41838;DHT22;27511;52.042;5.178;2023-05-07T14:57:10;23.20;99.90
41838;DHT22;27511;52.042;5.178;2023-05-07T14:59:35;22.70;99.90
41838;DHT22;27511;52.042;5.178;2023-05-07T15:02:01;22.20;99.90
41838;DHT22;27511;52.042;5.178;2023-05-07T15:04:26;21.80;99.90
41838;DHT22;27511;52.042;5.178;2023-05-07T15:06:52;21.60;99.90
41838;DHT22;27511;52.042;5.178;2023-05-07T15:09:19;21.20;99.90
41838;DHT22;27511;52.042;5.178;2023-05-07T15:11:44;21.00;99.90
41838;DHT22;27511;52.042;5.178;2023-05-07T15:14:10;20.90;99.90
41838;DHT22;27511;52.042;5.178;2023-05-07T15:16:35;21.00;99.90
41838;DHT22;27511;52.042;5.178;2023-05-07T15:19:01;20.90;99.90
41838;DHT22;27511;52.042;5.178;2023-05-07T15:21:26;20.80;99.90
41838;DHT22;27511;52.042;5.178;2023-05-07T15:23:52;21.10;99.90
41838;DHT22;27511;52.042;5.178;2023-05-07T15:26:17;21.20;99.90
41838;DHT22;27511;52.042;5.178;2023-05-07T15:28:43;21.30;99.90
41838;DHT22;27511;52.042;5.178;2023-05-07T15:31:08;21.40;99.90
41838;DHT22;27511;52.042;5.178;2023-05-07T15:33:34;21.50;99.90
41838;DHT22;27511;52.042;5.178;2023-05-07T15:35:59;21.60;99.90
41838;DHT22;27511;52.042;5.178;2023-05-07T15:38:25;21.50;99.90